Time;durP1;ratioP1;P1;durP2;ratioP2;P2;SDS_P1;SDS_P2;PMS_P1;PMS_P2;Temp;Humidity;BMP_temperature;BMP_pressure;BME280_temperature;BME280_humidity;BME280_pressure;Samples;Min_cycle;Max_cycle;Signal;HPM_P1;HPM_P2
2022/06/15 00:02:35;;;;;;;8.30;6.53;;;;;;;9.76;65.00;100861.75;2172556;82;27752;-56
2022/06/15 00:05:38;;;;;;;11.25;8.48;;;;;;;9.71;65.10;100857.88;2172582;82;28649;-57
2022/06/15 00:08:43;;;;;;;16.93;9.95;;;;;;;9.68;65.12;100855.80;2172347;82;31560;-57
2022/06/15 00:11:44;;;;;;;;;;;;;;;9.64;65.15;100856.38;2173528;81;33164;-62
2022/06/15 00:14:46;;;;;;;21.50;13.68;;;;;;;9.61;65.63;100855.59;2162968;82;29407;-58
2022/06/15 00:17:48;;;;;;;20.15;14.30;;;;;;;9.56;65.55;100855.77;2150155;82;28247;-57
2022/06/15 00:20:51;;;;;;;17.62;10.32;;;;;;;9.53;65.66;100854.09;2149824;82;28785;-57
2022/06/15 00:23:53;;;;;;;10.90;8.68;;;;;;;9.51;65.75;100855.95;2165019;82;32226;-58
2022/06/15 00:26:55;;;;;;;11.93;7.58;;;;;;;9.48;65.85;100855.20;2171860;82;33764;-58
2022/06/15 00:29:56;;;;;;;12.23;8.15;;;;;;;9.46;66.12;100859.72;2172143;81;30515;-57
2022/06/15 00:32:59;;;;;;;14.87;7.22;;;;;;;9.42;66.08;100858.49;2171926;81;27571;-57
2022/06/15 00:36:06;;;;;;;10.43;6.53;;;;;;;9.40;66.15;100851.46;2171985;82;29840;-57
2022/06/15 00:39:09;;;;;;;9.38;5.85;;;;;;;9.38;66.26;100853.31;2169698;82;32258;-57
2022/06/15 00:42:15;;;;;;;11.10;5.90;;;;;;;9.35;66.36;100851.60;2171770;82;33751;-57
2022/06/15 00:45:18;;;;;;;10.28;5.42;;;;;;;9.33;66.61;100849.92;2166257;82;29642;-57
2022/06/15 00:48:20;;;;;;;11.38;5.90;;;;;;;9.28;66.49;100859.45;2149920;82;27694;-57
2022/06/15 00:51:44;;;;;;;8.25;5.22;;;;;;;9.24;66.64;100857.36;2149899;82;29976;-57
2022/06/15 00:54:49;;;;;;;8.88;5.03;;;;;;;9.22;66.75;100857.87;2183543;81;31120;-57
2022/06/15 00:57:51;;;;;;;16.48;8.50;;;;;;;9.20;66.80;100858.83;2191358;81;33257;-57
2022/06/15 01:00:56;;;;;;;16.73;7.53;;;;;;;9.17;67.07;100850.94;2177579;81;30509;-58
2022/06/15 01:03:57;;;;;;;18.45;8.40;;;;;;;9.16;67.12;100845.19;2171113;81;27579;-57
2022/06/15 01:07:23;;;;;;;15.28;7.58;;;;;;;9.14;67.43;100851.90;2178119;81;29130;-57
2022/06/15 01:10:39;;;;;;;13.98;7.60;;;;;;;9.14;67.37;100851.05;2190596;81;31417;-57
2022/06/15 01:14:16;;;;;;;11.03;7.28;;;;;;;9.10;67.52;100847.13;2191003;81;32383;-59
2022/06/15 01:17:57;;;;;;;14.93;8.03;;;;;;;9.08;67.47;100852.13;2075873;85;30258;-58
2022/06/15 01:21:24;;;;;;;11.10;7.12;;;;;;;9.04;67.46;100850.00;2075797;85;28283;-58
2022/06/15 01:25:15;;;;;;;13.48;7.17;;;;;;;8.99;67.49;100849.76;2078599;85;29456;-57
2022/06/15 01:28:31;;;;;;;12.40;6.53;;;;;;;8.95;67.54;100844.99;2079342;85;31043;-57
2022/06/15 01:32:04;;;;;;;12.28;6.50;;;;;;;8.91;67.57;100848.69;2078675;85;34302;-57
2022/06/15 01:35:17;;;;;;;9.78;6.15;;;;;;;8.87;67.84;100843.92;2001329;88;30103;-58
2022/06/15 01:38:27;;;;;;;13.53;6.78;;;;;;;8.84;67.85;100841.82;1965791;90;27663;-57
2022/06/15 01:42:06;;;;;;;10.78;5.40;;;;;;;8.80;67.89;100837.91;1966109;90;29581;-57
2022/06/15 01:45:11;;;;;;;9.90;5.15;;;;;;;8.76;67.91;100839.41;1971208;90;31580;-58
2022/06/15 01:48:14;;;;;;;7.87;4.80;;;;;;;8.73;67.99;100844.84;2001520;88;33047;-57
2022/06/15 01:51:21;;;;;;;9.13;4.90;;;;;;;8.68;68.08;100841.00;2001563;88;30135;-57
2022/06/15 01:54:30;;;;;;;12.18;5.03;;;;;;;8.66;68.14;100842.84;2010423;87;27740;-58
2022/06/15 01:57:35;;;;;;;11.70;5.12;;;;;;;8.63;68.18;100843.80;1997008;88;29592;-58
2022/06/15 02:00:37;;;;;;;10.37;4.67;;;;;;;8.60;68.30;100837.25;1996580;89;31880;-57
2022/06/15 02:04:05;;;;;;;9.95;5.00;;;;;;;8.58;68.44;100835.53;1996343;89;33367;-57
2022/06/15 02:07:18;;;;;;;11.48;4.58;;;;;;;8.56;68.58;100839.59;2065479;83;29489;-57
2022/06/15 02:10:37;;;;;;;9.80;5.17;;;;;;;8.53;68.67;100840.14;2075608;85;27827;-57
2022/06/15 02:14:05;;;;;;;7.08;4.60;;;;;;;8.51;68.91;100837.53;2109972;84;29919;-57
2022/06/15 02:17:18;;;;;;;13.62;5.58;;;;;;;8.49;69.15;100836.25;2132214;83;33151;-58
2022/06/15 02:20:26;;;;;;;12.53;6.40;;;;;;;8.47;69.25;100843.84;2070003;85;34251;-58
2022/06/15 02:23:30;;;;;;;9.98;5.97;;;;;;;8.46;69.57;100836.76;2094515;84;29404;-63
2022/06/15 02:26:36;;;;;;;10.63;5.65;;;;;;;8.45;69.69;100837.68;2111150;84;27636;-57
2022/06/15 02:29:39;;;;;;;8.45;4.75;;;;;;;8.46;69.62;100830.98;2109959;84;29629;-58
2022/06/15 02:32:46;;;;;;;9.78;5.15;;;;;;;8.46;69.75;100836.76;2133389;83;31164;-57
2022/06/15 02:35:48;;;;;;;11.60;4.67;;;;;;;8.47;69.74;100837.17;2139289;83;33404;-59
2022/06/15 02:38:51;;;;;;;10.65;5.30;;;;;;;8.45;69.75;100838.57;2198309;81;30625;-57
2022/06/15 02:41:59;;;;;;;17.05;5.90;;;;;;;8.45;69.81;100840.34;2173250;81;27682;-57
2022/06/15 02:45:09;;;;;;;16.80;5.47;;;;;;;8.43;69.87;100842.22;2125299;83;28665;-67
2022/06/15 02:48:10;;;;;;;11.60;5.72;;;;;;;8.44;69.99;100843.97;2198315;80;32197;-57
2022/06/15 02:51:36;;;;;;;18.05;6.00;;;;;;;8.45;69.84;100843.91;2198882;80;33272;-58
2022/06/15 02:54:42;;;;;;;10.88;5.20;;;;;;;8.44;69.87;100843.97;2197848;80;35341;-60
2022/06/15 02:57:52;;;;;;;13.72;5.53;;;;;;;8.46;69.97;100851.45;2133847;83;27724;-59
2022/06/15 03:00:56;;;;;;;10.68;5.65;;;;;;;8.47;70.00;100847.85;2122700;83;29734;-58
2022/06/15 03:03:58;;;;;;;9.70;5.42;;;;;;;8.47;70.07;100851.41;2139647;83;31768;-58
2022/06/15 03:07:00;;;;;;;7.08;5.28;;;;;;;8.50;70.20;100850.47;2139244;83;34154;-57
2022/06/15 03:10:02;;;;;;;13.83;7.55;;;;;;;8.55;70.31;100856.54;2139628;83;30461;-57
2022/06/15 03:13:04;;;;;;;17.45;6.30;;;;;;;8.59;70.56;100854.64;2139484;83;27761;-57
2022/06/15 03:16:08;;;;;;;9.83;6.00;;;;;;;8.64;70.50;100850.03;2139709;83;29844;-58
2022/06/15 03:19:11;;;;;;;10.75;5.78;;;;;;;8.72;70.67;100853.30;2139583;83;31506;-58
2022/06/15 03:22:13;;;;;;;10.38;6.50;;;;;;;8.80;70.77;100856.61;2146264;81;32411;-59
2022/06/15 03:25:15;;;;;;;11.48;7.65;;;;;;;8.88;70.77;100852.79;2176606;81;30529;-58
2022/06/15 03:28:17;;;;;;;13.30;6.80;;;;;;;8.94;70.68;100851.26;2176901;80;27620;-57
2022/06/15 03:31:19;;;;;;;13.88;6.65;;;;;;;9.02;70.75;100856.34;2176523;81;29877;-58
2022/06/15 03:34:21;;;;;;;17.52;6.70;;;;;;;9.09;70.76;100847.20;2154136;81;32309;-63
2022/06/15 03:37:23;;;;;;;22.05;8.63;;;;;;;9.17;70.70;100849.12;2182583;81;34196;-58
2022/06/15 03:40:25;;;;;;;19.37;8.20;;;;;;;9.26;70.70;100857.29;2215928;80;29491;-58
2022/06/15 03:43:27;;;;;;;22.10;8.48;;;;;;;9.36;70.70;100854.69;2215931;80;27640;-57
2022/06/15 03:46:29;;;;;;;14.40;7.90;;;;;;;9.45;70.72;100856.16;2215943;80;28628;-57
2022/06/15 03:49:31;;;;;;;15.88;7.95;;;;;;;9.55;70.80;100856.70;2215902;80;31551;-57
2022/06/15 03:52:33;;;;;;;19.87;7.65;;;;;;;9.65;70.73;100849.22;2200343;80;34190;-57
2022/06/15 03:55:36;;;;;;;15.58;7.10;;;;;;;9.75;70.68;100851.09;2177129;81;30458;-63
2022/06/15 03:58:38;;;;;;;14.10;6.67;;;;;;;9.84;70.68;100851.62;2177363;81;27631;-57
2022/06/15 04:01:40;;;;;;;13.18;7.85;;;;;;;9.97;70.70;100853.38;2176992;81;29885;-56
2022/06/15 04:04:42;;;;;;;16.07;7.22;;;;;;;10.12;70.71;100852.37;2177030;81;32236;-58
2022/06/15 04:14:41;;;;;;;11.73;6.60;;;;;;;10.59;70.31;100858.15;2177446;81;28236;-56
2022/06/15 04:17:44;;;;;;;13.40;6.67;;;;;;;10.80;70.15;100863.08;2177401;81;29677;-57
2022/06/15 04:20:47;;;;;;;13.95;7.15;;;;;;;11.00;69.90;100864.06;2176911;81;31896;-57
2022/06/15 04:23:49;;;;;;;12.00;6.67;;;;;;;11.19;69.69;100856.09;2207851;80;34353;-56
2022/06/15 04:26:51;;;;;;;10.95;6.87;;;;;;;11.41;69.68;100849.31;2215486;80;30703;-56
2022/06/15 04:29:53;;;;;;;14.70;6.55;;;;;;;11.61;69.29;100856.46;2215683;80;27773;-56
2022/06/15 04:32:55;;;;;;;13.10;6.60;;;;;;;11.78;68.77;100855.71;2215608;80;29841;-56
2022/06/15 04:36:01;;;;;;;9.85;6.65;;;;;;;11.95;68.36;100857.60;2219613;79;31838;-56
2022/06/15 04:39:15;;;;;;;11.22;6.12;;;;;;;12.18;68.25;100852.12;2219746;80;33264;-56
2022/06/15 04:42:16;;;;;;;14.95;7.17;;;;;;;12.41;68.18;100855.93;2220154;80;30020;-56
2022/06/15 04:45:19;;;;;;;12.95;6.42;;;;;;;12.66;68.13;100856.05;2219781;80;27617;-56
2022/06/15 04:48:21;;;;;;;11.03;5.65;;;;;;;13.25;67.97;100861.65;2219779;80;29852;-56
2022/06/15 04:51:26;;;;;;;11.53;6.22;;;;;;;14.24;67.68;100855.03;2216119;80;32211;-56
2022/06/15 04:54:28;;;;;;;11.50;5.47;;;;;;;15.52;66.88;100853.92;2181213;81;33449;-56
2022/06/15 04:57:30;;;;;;;9.40;5.12;;;;;;;16.99;66.14;100848.12;2181429;81;29681;-57
2022/06/15 05:00:36;;;;;;;8.55;4.78;;;;;;;18.54;64.31;100844.46;2181140;81;27686;-57
2022/06/15 05:03:38;;;;;;;7.67;4.53;;;;;;;20.07;62.56;100846.77;2181500;81;29279;-57
2022/06/15 05:06:41;;;;;;;12.40;4.45;;;;;;;21.42;60.20;100838.79;2180902;81;32277;-57
2022/06/15 05:09:47;;;;;;;8.68;4.92;;;;;;;22.77;58.26;100838.61;2181179;81;33569;-57
2022/06/15 05:12:47;;;;;;;7.75;4.70;;;;;;;23.69;54.36;100825.41;2180864;81;30575;-57
2022/06/15 05:15:50;;;;;;;8.40;5.20;;;;;;;24.30;52.86;100836.85;2181220;81;27673;-57
2022/06/15 05:18:53;;;;;;;24.30;7.05;;;;;;;25.23;53.01;100823.37;2181484;81;29467;-57
2022/06/15 05:21:56;;;;;;;11.38;5.78;;;;;;;26.30;51.13;100823.69;2185936;80;30919;-57
2022/06/15 05:24:58;;;;;;;8.90;5.58;;;;;;;27.22;49.79;100825.53;2181436;81;32371;-56
2022/06/15 05:28:01;;;;;;;8.28;5.25;;;;;;;27.95;47.12;100826.45;2181020;81;30254;-57
2022/06/15 05:31:07;;;;;;;7.70;5.37;;;;;;;28.32;45.66;100833.18;2180962;81;27671;-57
2022/06/15 05:34:09;;;;;;;7.97;4.67;;;;;;;28.70;42.70;100837.98;2180908;80;28881;-56
2022/06/15 05:37:11;;;;;;;5.87;4.33;;;;;;;28.99;40.62;100835.53;2180705;81;32266;-57
2022/06/15 05:40:14;;;;;;;10.88;5.10;;;;;;;29.12;42.12;100835.80;2180854;81;33020;-57
2022/06/15 05:43:17;;;;;;;7.85;4.12;;;;;;;29.56;41.26;100832.80;2180886;81;30519;-57
2022/06/15 05:46:30;;;;;;;9.25;4.42;;;;;;;29.89;40.24;100824.14;2181063;81;27710;-58
2022/06/15 05:49:32;;;;;;;5.67;3.70;;;;;;;30.11;38.67;100820.98;2179028;81;28738;-57
2022/06/15 05:52:34;;;;;;;5.87;3.30;;;;;;;30.53;38.45;100820.41;2203100;80;31862;-57
2022/06/15 05:55:36;;;;;;;6.40;3.10;;;;;;;30.76;36.22;100823.02;2219563;80;34411;-57
2022/06/15 05:58:38;;;;;;;8.05;3.37;;;;;;;30.88;35.80;100817.81;2219684;80;30426;-56
2022/06/15 06:01:41;;;;;;;9.08;2.92;;;;;;;31.14;35.32;100819.13;2220035;80;27704;-57
2022/06/15 06:04:43;;;;;;;7.37;3.42;;;;;;;31.56;33.94;100825.65;2220038;80;29494;-57
2022/06/15 06:07:45;;;;;;;8.80;3.22;;;;;;;31.78;33.75;100825.58;2219569;80;32224;-57
2022/06/15 06:10:48;;;;;;;10.63;3.30;;;;;;;32.17;33.46;100818.55;2219504;80;34165;-58
2022/06/15 06:13:50;;;;;;;10.25;2.90;;;;;;;32.32;31.20;100822.59;2219421;80;31451;-57
2022/06/15 06:16:53;;;;;;;7.13;2.97;;;;;;;32.46;31.58;100817.92;2219858;80;27651;-57
2022/06/15 06:19:55;;;;;;;6.15;2.72;;;;;;;32.66;30.96;100817.99;2219659;80;28463;-57
2022/06/15 06:22:57;;;;;;;5.92;3.12;;;;;;;32.95;30.45;100812.27;2192677;80;32296;-57
2022/06/15 06:25:59;;;;;;;7.72;3.12;;;;;;;33.39;30.29;100813.60;2181161;81;33518;-57
2022/06/15 06:29:01;;;;;;;7.30;2.75;;;;;;;33.93;28.73;100808.80;2180748;81;30513;-57
2022/06/15 06:32:04;;;;;;;6.70;3.08;;;;;;;33.90;28.34;100807.84;2181091;81;27680;-57
2022/06/15 06:35:08;;;;;;;12.65;3.75;;;;;;;33.91;26.78;100809.55;2180923;80;29898;-57
2022/06/15 06:38:11;;;;;;;8.50;3.05;;;;;;;33.75;27.87;100808.09;2181035;81;31218;-57
2022/06/15 06:41:20;;;;;;;5.40;2.62;;;;;;;34.10;27.74;100809.70;2181171;81;33901;-57
2022/06/15 06:44:22;;;;;;;10.95;2.58;;;;;;;34.54;27.67;100812.72;2181281;81;29309;-57
2022/06/15 06:47:24;;;;;;;3.85;2.15;;;;;;;34.96;26.58;100814.48;2181221;81;27608;-57
2022/06/15 06:50:27;;;;;;;5.85;2.30;;;;;;;35.19;25.99;100811.62;2181023;81;29502;-57
2022/06/15 06:53:30;;;;;;;4.30;2.23;;;;;;;35.21;25.73;100808.59;2214434;80;32284;-57
2022/06/15 06:56:34;;;;;;;4.42;2.52;;;;;;;35.34;25.59;100817.38;2220051;80;33337;-57
2022/06/15 06:59:36;;;;;;;7.92;2.62;;;;;;;35.51;25.33;100817.66;2219803;80;29551;-57
2022/06/15 07:02:38;;;;;;;4.97;2.70;;;;;;;35.94;25.26;100813.98;2219857;80;28188;-57
2022/06/15 07:05:40;;;;;;;6.30;2.50;;;;;;;36.15;24.17;100811.28;2219631;80;29578;-57
2022/06/15 07:08:42;;;;;;;3.83;2.17;;;;;;;36.13;23.85;100818.19;2219706;80;31965;-57
2022/06/15 07:11:45;;;;;;;5.47;2.17;;;;;;;36.16;22.98;100807.93;2219711;80;34316;-57
2022/06/15 07:14:50;;;;;;;4.65;1.72;;;;;;;36.18;23.13;100816.39;2219756;80;30467;-57
2022/06/15 07:17:50;;;;;;;3.58;1.70;;;;;;;36.07;22.16;100812.14;2219491;80;27689;-57
2022/06/15 07:20:52;;;;;;;5.97;2.27;;;;;;;35.83;21.75;100809.16;2216450;80;28433;-57
2022/06/15 07:23:57;;;;;;;2.50;1.62;;;;;;;35.87;22.66;100807.63;2180904;81;31108;-56
2022/06/15 07:26:59;;;;;;;2.85;1.40;;;;;;;36.07;22.15;100806.56;2181293;81;33032;-57
2022/06/15 07:30:06;;;;;;;3.27;1.55;;;;;;;36.01;22.14;100809.19;2181231;81;29837;-57
2022/06/15 07:33:08;;;;;;;2.67;1.70;;;;;;;35.78;21.85;100802.06;2181431;81;27613;-57
2022/06/15 07:36:10;;;;;;;5.72;2.17;;;;;;;35.64;22.17;100798.56;2211512;79;29343;-57
2022/06/15 07:39:15;;;;;;;5.20;2.05;;;;;;;35.71;22.07;100797.40;2219859;80;32433;-57
2022/06/15 07:42:18;;;;;;;6.95;2.40;;;;;;;35.50;21.86;100795.05;2220079;80;32829;-57
2022/06/15 07:45:22;;;;;;;3.55;1.60;;;;;;;35.52;22.17;100799.33;2220508;80;33674;-57
2022/06/15 07:51:56;;;;;;;2.75;1.45;;;;;;;35.73;21.48;100800.81;2219908;80;30091;-56
2022/06/15 07:54:58;;;;;;;5.22;2.02;;;;;;;35.47;21.37;100799.72;2218227;80;31276;-56
2022/06/15 07:58:00;;;;;;;9.88;2.50;;;;;;;35.18;21.44;100808.52;2219745;80;33011;-56
2022/06/15 08:01:02;;;;;;;6.00;2.00;;;;;;;35.15;21.46;100806.19;2219943;80;30335;-56
2022/06/15 08:04:05;;;;;;;4.22;2.02;;;;;;;34.93;21.11;100802.39;2216337;80;27680;-57
2022/06/15 08:07:10;;;;;;;6.92;1.80;;;;;;;34.71;21.26;100801.05;2181381;81;29049;-55
2022/06/15 08:10:15;;;;;;;5.67;1.80;;;;;;;34.71;21.30;100796.87;2181375;81;30991;-57
2022/06/15 08:13:18;;;;;;;5.47;2.10;;;;;;;34.60;21.29;100799.83;2181141;81;33736;-57
2022/06/15 08:16:21;;;;;;;5.72;1.85;;;;;;;34.33;21.36;100800.81;2181356;81;30186;-57
2022/06/15 08:19:22;;;;;;;3.33;1.70;;;;;;;34.07;21.06;100790.14;2160027;81;27633;-57
2022/06/15 08:22:25;;;;;;;7.12;1.87;;;;;;;33.99;21.56;100783.43;2180943;81;29729;-58
2022/06/15 08:25:35;;;;;;;4.95;1.80;;;;;;;34.08;21.49;100784.91;2180889;81;32253;-58
2022/06/15 08:28:40;;;;;;;4.28;1.57;;;;;;;34.04;21.49;100782.76;2180868;81;35130;-56
2022/06/15 08:31:43;;;;;;;3.77;1.67;;;;;;;33.85;21.65;100778.97;2181249;81;29163;-57
2022/06/15 08:34:44;;;;;;;5.87;1.75;;;;;;;33.81;21.60;100767.97;2191562;78;27644;-56
2022/06/15 08:37:46;;;;;;;3.67;2.12;;;;;;;33.74;22.10;100770.77;2209228;80;29966;-57
2022/06/15 08:40:54;;;;;;;4.45;1.70;;;;;;;33.71;21.50;100783.19;2209211;80;32259;-57
2022/06/15 08:44:35;;;;;;;5.30;1.65;;;;;;;33.42;21.53;100776.20;2209652;80;32947;-57
2022/06/15 08:48:10;;;;;;;3.52;1.60;;;;;;;33.35;21.59;100767.84;2209173;80;29850;-57
2022/06/15 08:51:36;;;;;;;3.98;1.50;;;;;;;32.84;20.76;100764.67;2209481;80;27612;-57
2022/06/15 08:54:47;;;;;;;4.03;1.67;;;;;;;32.19;21.02;100765.13;2209834;80;29265;-57
2022/06/15 08:57:59;;;;;;;4.67;1.60;;;;;;;31.88;20.85;100767.02;2207586;80;31389;-57
2022/06/15 09:01:09;;;;;;;4.78;2.05;;;;;;;31.42;21.50;100767.09;2208947;80;33885;-57
2022/06/15 09:04:41;;;;;;;6.30;1.80;;;;;;;31.49;21.69;100767.97;2200953;80;29337;-57
2022/06/15 09:08:36;;;;;;;3.37;1.70;;;;;;;31.34;21.39;100773.64;2171604;80;27596;-57
2022/06/15 09:12:49;;;;;;;3.90;1.60;;;;;;;31.06;22.50;100769.77;2171068;82;29933;-58
2022/06/15 09:15:26;;;;;;;4.53;1.75;;;;;;;31.03;21.41;100774.32;2166862;82;32262;-57
2022/06/15 09:18:45;;;;;;;2.77;1.45;;;;;;;30.36;21.53;100768.66;2162106;82;34145;-57
2022/06/15 09:21:58;;;;;;;3.85;1.82;;;;;;;29.68;22.53;100767.80;2198561;80;30016;-57
2022/06/15 09:25:14;;;;;;;10.50;1.57;;;;;;;29.50;23.24;100767.31;2209513;80;27697;-57
2022/06/15 09:28:25;;;;;;;6.12;1.98;;;;;;;29.48;23.63;100774.39;2207197;80;28810;-57
2022/06/15 09:31:54;;;;;;;6.62;1.85;;;;;;;29.51;23.81;100766.27;2209648;80;31064;-56
2022/06/15 09:35:08;;;;;;;6.00;1.35;;;;;;;29.55;24.14;100759.30;2192663;80;35712;-56
2022/06/15 09:38:13;;;;;;;3.65;1.57;;;;;;;29.66;23.70;100757.97;2171551;80;29703;-57
2022/06/15 09:41:46;;;;;;;2.65;1.42;;;;;;;29.66;23.93;100744.16;2171487;82;27735;-59
2022/06/15 09:44:59;;;;;;;3.92;1.50;;;;;;;29.55;24.02;100740.84;2170961;82;30125;-58
2022/06/15 09:48:45;;;;;;;1.20;1.10;;;;;;;29.36;24.25;100746.42;2170397;82;31877;-57
2022/06/15 09:52:07;;;;;;;3.98;2.20;;;;;;;29.31;24.49;100739.70;2171102;82;33452;-57
2022/06/15 09:55:36;;;;;;;3.55;1.75;;;;;;;29.00;24.57;100735.19;2170138;82;30493;-57
2022/06/15 09:59:00;;;;;;;3.85;1.60;;;;;;;28.92;24.98;100743.02;2170953;82;27720;-57
2022/06/15 10:02:09;;;;;;;3.90;1.63;;;;;;;28.65;24.55;100742.54;2171285;82;29122;-57
2022/06/15 10:05:30;;;;;;;3.62;1.45;;;;;;;28.30;24.45;100742.95;2174716;80;31083;-57
2022/06/15 10:08:32;;;;;;;3.58;1.40;;;;;;;27.90;25.02;100737.46;2171238;82;33108;-57
2022/06/15 10:11:44;;;;;;;3.85;1.40;;;;;;;27.64;25.05;100731.40;2171015;82;30468;-57
2022/06/15 10:14:50;;;;;;;4.67;1.50;;;;;;;27.49;25.40;100731.27;2171317;82;27691;-57
2022/06/15 10:17:57;;;;;;;4.97;1.85;;;;;;;27.24;25.18;100728.03;2171359;82;28697;-57
2022/06/15 10:21:17;;;;;;;3.98;1.37;;;;;;;26.99;26.15;100725.34;2170873;82;31055;-57
2022/06/15 10:24:33;;;;;;;2.90;1.57;;;;;;;26.90;25.98;100727.75;2170842;82;34379;-57
2022/06/15 10:27:40;;;;;;;3.98;1.60;;;;;;;26.75;26.45;100728.94;2171004;82;29384;-56
2022/06/15 10:30:56;;;;;;;2.77;1.22;;;;;;;26.68;26.53;100727.90;2171390;82;27692;-57
2022/06/15 10:33:57;;;;;;;3.50;1.32;;;;;;;26.49;26.52;100723.61;2179476;80;28644;-57
2022/06/15 10:37:09;;;;;;;2.50;1.27;;;;;;;26.49;27.08;100725.83;2215593;79;32227;-57
2022/06/15 10:40:31;;;;;;;6.42;2.05;;;;;;;26.38;26.98;100720.17;2219239;80;33257;-57
2022/06/15 10:43:33;;;;;;;3.80;1.27;;;;;;;26.28;26.92;100716.71;2219902;80;30502;-57
2022/06/15 10:46:58;;;;;;;6.33;1.40;;;;;;;26.09;27.46;100721.45;2219987;80;27669;-56
2022/06/15 10:50:06;;;;;;;13.20;1.27;;;;;;;26.03;27.83;100716.64;2218641;80;29534;-57
2022/06/15 10:53:28;;;;;;;4.65;1.30;;;;;;;25.88;27.44;100709.55;2219886;80;31048;-57
2022/06/15 11:03:44;;;;;;;6.00;1.70;;;;;;;25.29;28.50;100711.68;2210683;80;27664;-57
2022/06/15 11:07:06;;;;;;;4.90;1.80;;;;;;;25.29;28.48;100700.71;2180984;81;29872;-57
2022/06/15 11:10:31;;;;;;;3.98;1.67;;;;;;;25.32;28.59;100697.62;2181361;81;31239;-57
2022/06/15 11:13:41;;;;;;;3.52;1.45;;;;;;;25.36;28.92;100700.03;2162823;81;33768;-57
2022/06/15 11:20:09;;;;;;;9.38;2.08;;;;;;;25.43;29.12;100691.55;2181100;81;27635;-57
2022/06/15 11:23:31;;;;;;;5.90;1.75;;;;;;;25.47;28.95;100691.05;2179858;81;28486;-57
2022/06/15 11:26:55;;;;;;;4.37;1.42;;;;;;;25.43;29.14;100695.66;2177453;81;33182;-57
2022/06/15 11:30:26;;;;;;;2.83;1.10;;;;;;;25.42;29.04;100692.57;2181221;81;33007;-57
2022/06/15 11:33:39;;;;;;;2.52;1.32;;;;;;;25.41;29.13;100689.45;2185804;80;30130;-57
2022/06/15 11:36:58;;;;;;;2.98;1.25;;;;;;;25.36;28.78;100689.95;2215818;79;27702;-57
2022/06/15 11:40:09;;;;;;;5.42;1.40;;;;;;;25.29;28.72;100684.75;2209332;80;29943;-57
2022/06/15 11:43:21;;;;;;;4.40;1.50;;;;;;;25.15;28.48;100680.75;2145760;83;31007;-57
2022/06/15 11:46:51;;;;;;;5.42;1.47;;;;;;;25.05;28.59;100682.73;2145641;82;33087;-57
2022/06/15 11:50:04;;;;;;;2.40;1.50;;;;;;;24.94;28.53;100673.77;2145730;82;29343;-57
2022/06/15 11:53:11;;;;;;;5.08;1.20;;;;;;;24.74;28.48;100682.69;2145253;83;27737;-57
2022/06/15 11:56:16;;;;;;;1.70;1.20;;;;;;;24.49;28.26;100681.10;2145668;83;28864;-57
2022/06/15 11:59:41;;;;;;;4.30;1.42;;;;;;;24.24;28.45;100677.28;2145528;82;31183;-56
2022/06/15 12:03:22;;;;;;;2.33;1.20;;;;;;;24.08;28.92;100680.22;2145522;83;33137;-59
2022/06/15 12:06:28;;;;;;;3.87;1.37;;;;;;;23.93;28.86;100678.47;2109683;84;29986;-57
2022/06/15 12:09:59;;;;;;;1.67;1.25;;;;;;;23.83;29.49;100667.59;2109428;84;28549;-57
2022/06/15 12:13:37;;;;;;;3.25;1.40;;;;;;;23.81;29.31;100669.64;2109370;84;28793;-57
2022/06/15 12:16:53;;;;;;;4.37;1.72;;;;;;;23.83;29.57;100663.48;2109465;84;31083;-57
2022/06/15 12:20:09;;;;;;;4.90;1.87;;;;;;;23.91;30.29;100668.19;2131622;82;34334;-57
2022/06/15 12:23:31;;;;;;;4.72;1.95;;;;;;;23.93;30.32;100669.42;2171240;82;29491;-57
2022/06/15 12:26:50;;;;;;;6.53;2.05;;;;;;;23.97;30.19;100664.88;2171421;82;27668;-57
2022/06/15 12:30:09;;;;;;;4.80;1.55;;;;;;;23.99;30.38;100653.79;2172020;80;29260;-57
2022/06/15 12:33:46;;;;;;;4.67;1.50;;;;;;;24.07;30.88;100659.85;2171536;80;31020;-57
2022/06/15 12:37:04;;;;;;;4.08;1.40;;;;;;;24.16;30.96;100650.69;2180823;80;34385;-57
2022/06/15 12:40:25;;;;;;;2.77;1.35;;;;;;;24.22;30.77;100652.81;2166188;82;29154;-57
2022/06/15 12:43:40;;;;;;;5.85;1.55;;;;;;;24.21;30.47;100648.35;2149648;82;27588;-57
2022/06/15 12:46:44;;;;;;;2.65;1.40;;;;;;;24.20;30.18;100644.37;2149546;82;29938;-57
2022/06/15 12:50:00;;;;;;;2.07;1.10;;;;;;;24.10;29.86;100639.86;2121383;82;30536;-57
2022/06/15 12:53:22;;;;;;;4.30;1.20;;;;;;;24.06;30.26;100634.34;2035242;87;34189;-58
2022/06/15 12:57:06;;;;;;;8.08;1.77;;;;;;;24.02;30.53;100628.82;2035501;86;29700;-57
2022/06/15 13:00:34;;;;;;;4.62;1.70;;;;;;;24.06;30.34;100630.76;1992349;87;27959;-66
2022/06/15 13:04:25;;;;;;;3.58;1.22;;;;;;;24.04;30.49;100636.38;1992960;89;29535;-57
2022/06/15 13:07:33;;;;;;;7.00;1.45;;;;;;;24.00;30.41;100630.00;1993190;89;31908;-56
2022/06/15 13:10:35;;;;;;;2.85;1.15;;;;;;;23.97;30.45;100625.71;1993340;89;33594;-56
2022/06/15 13:13:51;;;;;;;5.70;1.52;;;;;;;23.97;30.12;100623.82;1993255;89;29964;-57
2022/06/15 13:17:07;;;;;;;4.20;1.35;;;;;;;23.96;30.23;100621.22;1993032;89;27777;-57
2022/06/15 13:20:12;;;;;;;2.83;1.32;;;;;;;23.98;30.45;100617.86;1993138;89;28327;-57
2022/06/15 13:23:25;;;;;;;4.00;1.30;;;;;;;24.01;30.71;100618.05;2012507;87;31512;-57
2022/06/15 13:26:44;;;;;;;1.90;1.05;;;;;;;24.05;30.39;100623.56;2025229;87;33619;-57
2022/06/15 13:29:54;;;;;;;2.77;1.25;;;;;;;24.04;30.32;100624.05;2042754;86;30699;-57
2022/06/15 13:33:09;;;;;;;2.92;1.00;;;;;;;24.04;30.15;100612.27;2059002;86;27804;-57
2022/06/15 13:36:17;;;;;;;;;;;;;;;24.07;30.23;100614.16;2105910;82;30054;-58
2022/06/15 13:39:45;;;;;;;3.58;1.60;;;;;;;24.13;30.65;100603.09;2133205;83;31893;-57
2022/06/15 13:43:01;;;;;;;5.85;1.62;;;;;;;24.22;30.79;100597.18;2133530;83;34123;-57
2022/06/15 13:46:07;;;;;;;4.20;1.20;;;;;;;24.30;30.76;100605.48;2139479;83;29735;-56
2022/06/15 13:49:20;;;;;;;4.92;1.57;;;;;;;24.38;30.46;100598.68;2099623;84;27640;-57
2022/06/15 13:52:30;;;;;;;1.52;1.00;;;;;;;24.43;30.30;100592.22;2102303;83;29509;-56
2022/06/15 13:55:43;;;;;;;6.08;1.20;;;;;;;24.46;30.00;100586.08;2149118;82;31893;-59
2022/06/15 13:59:22;;;;;;;3.12;1.50;;;;;;;24.47;30.12;100592.75;2149155;82;33096;-65
2022/06/15 14:02:50;;;;;;;3.85;1.52;;;;;;;24.45;29.91;100592.58;2149089;82;29828;-58
2022/06/15 14:06:23;;;;;;;3.22;1.40;;;;;;;24.39;29.68;100592.70;2149211;82;27688;-57
2022/06/15 14:10:19;;;;;;;3.70;1.22;;;;;;;24.37;29.96;100584.63;2149462;82;29053;-63
2022/06/15 14:13:45;;;;;;;3.58;1.20;;;;;;;24.40;30.01;100578.00;2102114;84;32263;-65
2022/06/15 14:17:15;;;;;;;3.02;1.12;;;;;;;24.43;29.84;100573.55;2101333;84;34036;-62
2022/06/15 14:20:26;;;;;;;2.30;1.67;;;;;;;24.44;29.76;100576.64;2101510;84;30308;-64
2022/06/15 14:23:31;;;;;;;3.12;1.55;;;;;;;24.49;30.14;100577.02;2098468;84;27684;-62
2022/06/15 14:26:34;;;;;;;1.72;1.10;;;;;;;24.56;29.87;100567.16;2107974;84;28638;-58
2022/06/15 14:29:45;;;;;;;3.50;1.43;;;;;;;24.65;29.87;100568.56;2072937;83;31472;-58
2022/06/15 14:33:02;;;;;;;2.83;1.40;;;;;;;24.68;29.89;100558.66;2137644;82;33997;-57
2022/06/15 14:36:15;;;;;;;2.47;1.35;;;;;;;24.70;29.62;100564.34;2107347;84;29890;-66
2022/06/15 14:39:18;;;;;;;2.83;1.62;;;;;;;24.69;29.54;100550.26;2138691;82;27670;-57
2022/06/15 14:42:54;;;;;;;4.80;1.57;;;;;;;24.68;29.62;100554.55;2139330;83;28665;-57
2022/06/15 14:45:38;;;;;;;6.15;1.72;;;;;;;24.67;29.56;100549.56;2139172;81;31570;-57
2022/06/15 14:48:42;;;;;;;3.12;1.17;;;;;;;24.66;29.49;100551.95;2241632;79;32956;-57
2022/06/15 14:51:45;;;;;;;8.15;1.30;;;;;;;24.66;29.37;100557.95;2208797;79;29058;-57
2022/06/15 14:54:51;;;;;;;7.80;1.47;;;;;;;24.61;29.41;100552.97;2201785;80;28285;-57
2022/06/15 14:58:13;;;;;;;6.28;1.35;;;;;;;24.59;29.36;100550.89;2165772;82;29562;-61
2022/06/15 15:01:16;;;;;;;2.83;1.37;;;;;;;24.54;29.39;100545.03;2166118;82;31392;-57
2022/06/15 15:04:19;;;;;;;4.97;1.40;;;;;;;24.53;29.66;100544.68;2149588;82;34094;-57
2022/06/15 15:11:03;;;;;;;11.80;1.60;;;;;;;24.45;30.57;100535.91;2149607;82;27701;-61